Time;durP1;ratioP1;P1;durP2;ratioP2;P2;SDS_P1;SDS_P2;PMS_P1;PMS_P2;Temp;Humidity;BMP_temperature;BMP_pressure;BME280_temperature;BME280_humidity;BME280_pressure;Samples;Min_cycle;Max_cycle;Signal;HPM_P1;HPM_P2
2022/10/25 00:00:12;;;;;;;50.17;24.73;;;;;;;;;;1028062;28;20018;-76
2022/10/25 00:00:42;;;;;;;46.08;22.65;;;;;;;;;;1027974;28;20035;-76
2022/10/25 00:01:34;;;;;;;43.20;22.35;;;;;;;;;;1027881;28;20023;-76
2022/10/25 00:02:05;;;;;;;51.40;22.73;;;;;;;;;;1028429;28;20061;-76
2022/10/25 00:02:36;;;;;;;50.17;23.73;;;;;;;;;;1028178;28;20033;-76
2022/10/25 00:03:07;;;;;;;54.80;21.63;;;;;;;;;;1027981;28;20487;-76
2022/10/25 00:03:38;;;;;;;50.05;22.75;;;;;;;;;;1027757;28;20069;-76
2022/10/25 00:04:08;;;;;;;55.90;22.20;;;;;;;;;;1027952;28;20542;-76
2022/10/25 00:04:39;;;;;;;57.80;24.33;;;;;;;;;;1027712;28;20026;-76
2022/10/25 00:05:13;;;;;;;52.42;20.13;;;;;;;;;;1024038;29;20047;-75
2022/10/25 00:05:43;;;;;;;61.35;23.15;;;;;;;;;;1023936;29;20031;-75
2022/10/25 00:06:14;;;;;;;51.00;24.05;;;;;;;;;;1024019;28;20046;-75
2022/10/25 00:06:45;;;;;;;53.15;25.60;;;;;;;;;;1023985;29;20480;-75
2022/10/25 00:07:15;;;;;;;52.30;24.58;;;;;;;;;;1024007;28;20503;-76
2022/10/25 00:07:46;;;;;;;55.58;25.05;;;;;;;;;;1028326;28;20522;-76
2022/10/25 00:08:16;;;;;;;49.45;20.20;;;;;;;;;;1028139;28;20113;-75
2022/10/25 00:08:47;;;;;;;53.88;23.75;;;;;;;;;;1028367;28;20062;-75
2022/10/25 00:09:18;;;;;;;52.88;22.88;;;;;;;;;;1028023;28;20126;-76
2022/10/25 00:09:48;;;;;;;44.15;23.23;;;;;;;;;;1028304;28;20546;-76
2022/10/25 00:10:19;;;;;;;51.25;23.15;;;;;;;;;;1028272;28;20030;-76
2022/10/25 00:10:49;;;;;;;49.05;24.27;;;;;;;;;;1028264;28;20073;-76
2022/10/25 00:11:22;;;;;;;53.97;25.67;;;;;;;;;;1027752;28;20061;-76
2022/10/25 00:11:52;;;;;;;52.72;22.45;;;;;;;;;;1027994;28;20050;-76
2022/10/25 00:12:23;;;;;;;52.70;23.75;;;;;;;;;;1027984;28;20501;-76
2022/10/25 00:12:53;;;;;;;45.97;22.10;;;;;;;;;;1023868;29;20042;-76
2022/10/25 00:13:24;;;;;;;44.38;22.20;;;;;;;;;;1023899;29;20063;-76
2022/10/25 00:13:55;;;;;;;47.05;23.30;;;;;;;;;;1024004;29;20118;-76
2022/10/25 00:14:26;;;;;;;59.17;24.73;;;;;;;;;;1024176;28;20027;-76
2022/10/25 00:14:59;;;;;;;57.17;24.25;;;;;;;;;;1028324;28;20117;-76
2022/10/25 00:15:30;;;;;;;54.30;23.33;;;;;;;;;;1028001;28;20061;-76
2022/10/25 00:16:00;;;;;;;55.42;22.55;;;;;;;;;;1027969;28;20033;-76
2022/10/25 00:16:32;;;;;;;50.35;23.65;;;;;;;;;;1027655;28;20031;-76
2022/10/25 00:17:03;;;;;;;53.08;22.98;;;;;;;;;;1028125;28;20030;-76
2022/10/25 00:17:33;;;;;;;47.70;22.90;;;;;;;;;;1027713;28;20038;-76
2022/10/25 00:18:04;;;;;;;45.42;22.17;;;;;;;;;;1028029;28;20036;-76
2022/10/25 00:18:34;;;;;;;47.15;22.35;;;;;;;;;;1027763;28;20125;-76
2022/10/25 00:19:05;;;;;;;49.63;23.98;;;;;;;;;;1027997;28;20023;-76
2022/10/25 00:19:36;;;;;;;53.20;22.88;;;;;;;;;;1027759;28;20030;-76
2022/10/25 00:20:06;;;;;;;49.78;21.70;;;;;;;;;;1027942;28;20030;-76
2022/10/25 00:20:37;;;;;;;44.65;21.90;;;;;;;;;;1019882;29;20027;-76
2022/10/25 00:21:07;;;;;;;51.33;22.05;;;;;;;;;;1024053;28;20031;-76
2022/10/25 00:21:38;;;;;;;59.55;25.02;;;;;;;;;;1023823;29;20035;-76
2022/10/25 00:22:08;;;;;;;42.80;21.73;;;;;;;;;;973489;28;1477101;-76
2022/10/25 00:22:39;;;;;;;43.58;20.75;;;;;;;;;;1028014;28;20084;-76
2022/10/25 00:23:09;;;;;;;56.40;24.52;;;;;;;;;;1028187;28;20086;-75
2022/10/25 00:23:40;;;;;;;49.70;22.33;;;;;;;;;;1027959;28;20030;-75
2022/10/25 00:24:11;;;;;;;51.85;23.48;;;;;;;;;;1028037;28;20034;-75
2022/10/25 00:24:42;;;;;;;51.15;21.67;;;;;;;;;;1024166;29;20031;-76
2022/10/25 00:25:12;;;;;;;62.70;25.02;;;;;;;;;;1024347;28;20026;-76
2022/10/25 00:25:43;;;;;;;46.85;23.08;;;;;;;;;;1024094;29;20123;-76
2022/10/25 00:26:14;;;;;;;52.58;21.75;;;;;;;;;;1024076;28;20033;-76
2022/10/25 00:26:45;;;;;;;49.22;21.77;;;;;;;;;;1024105;29;20464;-76
2022/10/25 00:27:15;;;;;;;63.65;23.05;;;;;;;;;;1020149;29;20036;-76
2022/10/25 00:27:46;;;;;;;44.13;19.48;;;;;;;;;;1024137;29;20031;-76
2022/10/25 00:28:16;;;;;;;45.58;20.83;;;;;;;;;;1024073;29;20047;-76
2022/10/25 00:28:47;;;;;;;42.10;23.25;;;;;;;;;;1024295;28;20035;-76
2022/10/25 00:29:18;;;;;;;42.15;19.92;;;;;;;;;;1028307;28;20035;-76
2022/10/25 00:29:48;;;;;;;55.67;23.60;;;;;;;;;;1028447;28;20053;-76
2022/10/25 00:30:19;;;;;;;50.88;23.30;;;;;;;;;;1028001;28;20152;-76
2022/10/25 00:30:58;;;;;;;51.13;23.27;;;;;;;;;;1028123;28;20026;-76
2022/10/25 00:31:28;;;;;;;55.97;22.95;;;;;;;;;;1027940;28;20066;-76
2022/10/25 00:31:59;;;;;;;49.25;24.20;;;;;;;;;;1028291;28;20081;-76
2022/10/25 00:32:29;;;;;;;69.55;23.48;;;;;;;;;;1027902;28;20038;-76
2022/10/25 00:33:00;;;;;;;47.72;21.50;;;;;;;;;;1024251;29;20034;-76
2022/10/25 00:33:31;;;;;;;45.80;21.67;;;;;;;;;;1023889;29;20512;-76
2022/10/25 00:34:01;;;;;;;55.63;25.05;;;;;;;;;;1024310;29;20027;-76
2022/10/25 00:34:32;;;;;;;51.50;23.15;;;;;;;;;;1024159;28;20023;-76
2022/10/25 00:35:03;;;;;;;43.13;20.15;;;;;;;;;;1028591;28;20031;-76
2022/10/25 00:35:34;;;;;;;62.58;22.38;;;;;;;;;;1028124;28;20027;-76
2022/10/25 00:36:06;;;;;;;51.78;20.58;;;;;;;;;;1028461;28;20023;-76
2022/10/25 00:36:37;;;;;;;43.90;21.60;;;;;;;;;;1024151;28;20491;-76
2022/10/25 00:37:07;;;;;;;48.80;23.88;;;;;;;;;;1019914;29;20024;-76
2022/10/25 00:37:38;;;;;;;47.05;23.60;;;;;;;;;;1019926;29;20163;-76
2022/10/25 00:38:08;;;;;;;60.83;25.27;;;;;;;;;;1023570;29;20027;-76
2022/10/25 00:38:39;;;;;;;45.45;22.33;;;;;;;;;;1024026;29;20027;-76
2022/10/25 00:39:10;;;;;;;59.17;24.52;;;;;;;;;;1024071;29;20027;-76
2022/10/25 00:39:40;;;;;;;55.63;22.65;;;;;;;;;;1024019;28;20027;-76
2022/10/25 00:40:11;;;;;;;51.42;20.95;;;;;;;;;;1027996;28;20115;-76
2022/10/25 00:40:41;;;;;;;48.55;22.55;;;;;;;;;;1028109;28;20023;-76
2022/10/25 00:41:13;;;;;;;43.15;22.63;;;;;;;;;;1027888;28;20479;-76
2022/10/25 00:41:44;;;;;;;55.55;23.02;;;;;;;;;;1024026;29;20035;-76
2022/10/25 00:42:24;;;;;;;47.75;21.75;;;;;;;;;;1024122;29;20027;-76
2022/10/25 00:42:55;;;;;;;52.65;22.67;;;;;;;;;;1024158;29;20423;-76
2022/10/25 00:43:35;;;;;;;48.35;20.83;;;;;;;;;;1025500;28;20074;-76
2022/10/25 00:44:28;;;;;;;42.10;19.20;;;;;;;;;;1028589;28;20031;-76
2022/10/25 00:45:11;;;;;;;48.08;20.83;;;;;;;;;;1022483;28;20038;-76
2022/10/25 00:45:42;;;;;;;55.80;20.33;;;;;;;;;;1027854;28;20093;-76
2022/10/25 00:46:19;;;;;;;41.65;19.85;;;;;;;;;;1027995;28;20098;-76
2022/10/25 00:46:50;;;;;;;52.47;21.88;;;;;;;;;;1028136;28;20589;-76
2022/10/25 00:47:21;;;;;;;44.35;22.58;;;;;;;;;;1027973;28;20030;-76
2022/10/25 00:47:51;;;;;;;34.85;19.10;;;;;;;;;;1028374;28;20019;-76
2022/10/25 00:48:22;;;;;;;42.92;22.35;;;;;;;;;;1028225;28;20118;-76
2022/10/25 00:48:55;;;;;;;51.80;22.30;;;;;;;;;;1028376;28;20382;-76
2022/10/25 00:49:25;;;;;;;49.10;21.52;;;;;;;;;;1026822;28;20042;-76
2022/10/25 00:49:56;;;;;;;46.30;22.02;;;;;;;;;;1023926;29;20383;-76
2022/10/25 00:50:26;;;;;;;47.28;21.35;;;;;;;;;;1024080;29;20122;-76
2022/10/25 00:50:57;;;;;;;51.70;23.42;;;;;;;;;;1024106;28;20027;-76
2022/10/25 00:51:32;;;;;;;53.40;22.92;;;;;;;;;;1024114;29;20029;-76
2022/10/25 00:52:05;;;;;;;54.50;22.63;;;;;;;;;;1024475;29;20027;-76
2022/10/25 00:52:36;;;;;;;41.22;21.63;;;;;;;;;;1023459;29;20435;-76
2022/10/25 00:53:12;;;;;;;45.58;20.70;;;;;;;;;;1024452;29;20554;-76
2022/10/25 00:53:43;;;;;;;40.42;21.27;;;;;;;;;;1024314;29;20091;-76
2022/10/25 00:54:17;;;;;;;44.28;21.13;;;;;;;;;;1024353;29;20088;-75
2022/10/25 00:54:49;;;;;;;65.47;24.48;;;;;;;;;;1027636;28;20507;-76
2022/10/25 00:55:21;;;;;;;52.50;21.08;;;;;;;;;;1028012;28;20033;-77
2022/10/25 00:55:54;;;;;;;44.90;22.15;;;;;;;;;;1023935;28;20034;-76
2022/10/25 00:56:26;;;;;;;52.38;24.27;;;;;;;;;;1023915;29;20071;-76
2022/10/25 00:56:58;;;;;;;51.13;22.38;;;;;;;;;;1023982;29;20034;-76
2022/10/25 00:57:32;;;;;;;56.63;21.45;;;;;;;;;;1024698;28;20035;-76
2022/10/25 00:58:11;;;;;;;47.70;19.80;;;;;;;;;;1028214;28;20133;-76
2022/10/25 00:58:44;;;;;;;47.05;20.95;;;;;;;;;;1027833;28;20089;-76
2022/10/25 00:59:17;;;;;;;51.30;21.98;;;;;;;;;;1028069;28;20026;-76
2022/10/25 00:59:48;;;;;;;51.00;23.25;;;;;;;;;;1028346;28;20030;-76
2022/10/25 01:00:19;;;;;;;44.42;21.13;;;;;;;;;;1028177;28;20065;-76
2022/10/25 01:00:49;;;;;;;59.63;24.45;;;;;;;;;;1028283;28;20062;-76
2022/10/25 01:01:20;;;;;;;47.40;21.33;;;;;;;;;;1027520;28;20479;-76
2022/10/25 01:01:54;;;;;;;53.63;21.17;;;;;;;;;;1028257;28;20545;-76
2022/10/25 01:02:25;;;;;;;41.50;19.20;;;;;;;;;;1028198;28;20019;-76
2022/10/25 01:02:55;;;;;;;48.78;20.83;;;;;;;;;;1028308;28;20035;-76
2022/10/25 01:03:26;;;;;;;48.20;21.67;;;;;;;;;;1023779;29;20054;-77
2022/10/25 01:03:58;;;;;;;50.20;21.75;;;;;;;;;;1024094;29;20023;-76
2022/10/25 01:04:30;;;;;;;41.25;19.45;;;;;;;;;;1023850;29;20023;-76
2022/10/25 01:05:01;;;;;;;48.72;22.83;;;;;;;;;;1020655;29;20028;-76
2022/10/25 01:05:33;;;;;;;38.42;19.58;;;;;;;;;;1019778;29;20470;-75
2022/10/25 01:06:04;;;;;;;41.60;20.38;;;;;;;;;;1020164;29;20567;-76
2022/10/25 01:06:39;;;;;;;41.60;20.10;;;;;;;;;;1019105;29;20039;-76
2022/10/25 01:07:09;;;;;;;48.20;21.75;;;;;;;;;;1020807;29;20453;-76
2022/10/25 01:07:40;;;;;;;55.28;19.45;;;;;;;;;;1023864;29;20031;-76
2022/10/25 01:08:11;;;;;;;38.38;20.90;;;;;;;;;;1024019;29;20499;-76
2022/10/25 01:08:42;;;;;;;48.17;20.65;;;;;;;;;;1023651;29;20035;-77
2022/10/25 01:09:14;;;;;;;39.15;19.55;;;;;;;;;;1023972;29;20466;-76
2022/10/25 01:09:45;;;;;;;39.53;19.85;;;;;;;;;;1024421;28;20038;-76
2022/10/25 01:10:16;;;;;;;47.65;20.92;;;;;;;;;;1028032;28;20394;-76
2022/10/25 01:10:46;;;;;;;41.60;20.02;;;;;;;;;;1028103;28;20038;-76
2022/10/25 01:11:17;;;;;;;42.53;19.58;;;;;;;;;;1028080;28;20026;-76
2022/10/25 01:11:48;;;;;;;40.22;19.58;;;;;;;;;;1028308;28;20038;-76
2022/10/25 01:12:18;;;;;;;40.80;20.17;;;;;;;;;;1028381;28;20030;-76
2022/10/25 01:12:49;;;;;;;43.83;19.25;;;;;;;;;;1028183;28;20129;-76
2022/10/25 01:13:19;;;;;;;37.63;17.85;;;;;;;;;;1028173;28;20482;-76
2022/10/25 01:13:50;;;;;;;48.50;19.73;;;;;;;;;;1028267;28;20027;-75
2022/10/25 01:14:21;;;;;;;46.72;20.83;;;;;;;;;;1028239;28;20034;-76
2022/10/25 01:14:53;;;;;;;38.17;18.80;;;;;;;;;;1028212;28;20030;-76
2022/10/25 01:15:28;;;;;;;38.42;20.38;;;;;;;;;;1028124;28;20486;-76
2022/10/25 01:16:14;;;;;;;37.42;18.83;;;;;;;;;;1024118;29;20078;-76
2022/10/25 01:17:03;;;;;;;38.53;17.17;;;;;;;;;;1023292;29;20082;-76
2022/10/25 01:17:46;;;;;;;32.15;17.20;;;;;;;;;;1023782;28;20488;-76
2022/10/25 01:18:21;;;;;;;39.78;16.67;;;;;;;;;;1028189;28;20026;-76
2022/10/25 01:19:15;;;;;;;35.63;19.10;;;;;;;;;;1023766;29;20488;-75
2022/10/25 01:19:57;;;;;;;39.30;18.67;;;;;;;;;;1014536;29;20165;-75
2022/10/25 01:20:34;;;;;;;44.40;17.08;;;;;;;;;;1020146;29;20024;-75
2022/10/25 01:21:24;;;;;;;43.85;16.67;;;;;;;;;;1020121;29;20365;-76
2022/10/25 01:21:55;;;;;;;39.05;17.30;;;;;;;;;;1026203;28;20093;-76
2022/10/25 01:22:48;;;;;;;39.35;19.60;;;;;;;;;;1022594;29;20118;-78
2022/10/25 01:23:37;;;;;;;35.55;16.35;;;;;;;;;;1015955;28;20032;-76
2022/10/25 01:24:25;;;;;;;39.65;18.48;;;;;;;;;;1022968;29;20059;-76
2022/10/25 01:25:14;;;;;;;43.53;17.42;;;;;;;;;;1022675;28;20073;-76
2022/10/25 01:26:00;;;;;;;39.88;18.20;;;;;;;;;;1025873;28;20019;-76
2022/10/25 01:27:00;;;;;;;34.45;17.30;;;;;;;;;;1027015;28;20491;-76
2022/10/25 01:27:31;;;;;;;38.38;17.80;;;;;;;;;;1026902;28;20391;-77
2022/10/25 01:28:05;;;;;;;46.10;22.45;;;;;;;;;;1027578;28;20031;-77
2022/10/25 01:28:48;;;;;;;54.67;23.75;;;;;;;;;;1027608;28;20389;-76
2022/10/25 01:29:27;;;;;;;56.70;20.70;;;;;;;;;;1025758;28;20490;-75
2022/10/25 01:30:04;;;;;;;45.25;20.85;;;;;;;;;;1027906;28;20090;-75
2022/10/25 01:30:53;;;;;;;53.42;25.65;;;;;;;;;;1024206;28;20534;-76
2022/10/25 01:31:28;;;;;;;56.65;19.77;;;;;;;;;;1023405;28;20086;-75
2022/10/25 01:32:05;;;;;;;42.80;21.35;;;;;;;;;;1025908;28;20035;-76
2022/10/25 01:32:51;;;;;;;41.97;19.50;;;;;;;;;;1027040;28;20546;-76
2022/10/25 01:33:25;;;;;;;48.03;20.42;;;;;;;;;;1027027;28;20023;-77
2022/10/25 01:34:00;;;;;;;46.72;19.95;;;;;;;;;;1027822;28;20045;-76
2022/10/25 01:34:40;;;;;;;54.40;21.85;;;;;;;;;;1023240;29;20059;-76
2022/10/25 01:35:19;;;;;;;40.90;20.60;;;;;;;;;;1022820;28;20035;-76
2022/10/25 01:35:53;;;;;;;52.10;23.35;;;;;;;;;;1019705;29;20034;-75
2022/10/25 01:37:02;;;;;;;58.20;25.70;;;;;;;;;;1022769;29;20039;-76
2022/10/25 01:37:33;;;;;;;49.75;23.67;;;;;;;;;;1013828;29;20031;-75
2022/10/25 01:38:22;;;;;;;47.90;23.17;;;;;;;;;;1011765;29;20393;-77
2022/10/25 01:39:02;;;;;;;57.75;24.50;;;;;;;;;;1011631;29;20458;-78
2022/10/25 01:39:35;;;;;;;59.63;23.80;;;;;;;;;;1011659;29;20028;-78
2022/10/25 01:40:12;;;;;;;43.72;23.13;;;;;;;;;;1010702;29;20037;-78
2022/10/25 01:40:52;;;;;;;53.13;25.02;;;;;;;;;;1011257;29;20481;-78
2022/10/25 01:41:22;;;;;;;51.15;27.10;;;;;;;;;;1013164;29;20035;-78
2022/10/25 01:42:02;;;;;;;62.80;27.77;;;;;;;;;;1014493;29;20033;-78
2022/10/25 01:42:48;;;;;;;60.42;28.13;;;;;;;;;;1011613;29;20024;-78
2022/10/25 01:43:33;;;;;;;64.32;28.70;;;;;;;;;;1016563;28;20378;-78
2022/10/25 01:44:07;;;;;;;73.60;31.48;;;;;;;;;;1027952;28;20018;-80
2022/10/25 01:44:40;;;;;;;64.95;29.60;;;;;;;;;;1025902;28;20066;-78
2022/10/25 01:45:16;;;;;;;53.60;27.23;;;;;;;;;;1025960;28;20567;-77
2022/10/25 01:46:05;;;;;;;58.78;27.17;;;;;;;;;;1024954;28;20061;-77
2022/10/25 01:46:55;;;;;;;52.13;24.77;;;;;;;;;;1028057;28;20034;-79
2022/10/25 01:47:31;;;;;;;56.23;24.20;;;;;;;;;;1026820;28;20490;-80
2022/10/25 01:48:07;;;;;;;58.47;24.60;;;;;;;;;;1024187;28;20263;-80
2022/10/25 01:49:00;;;;;;;62.17;24.45;;;;;;;;;;1021719;29;20511;-80
2022/10/25 01:49:40;;;;;;;62.05;26.50;;;;;;;;;;1022465;29;20167;-80
2022/10/25 01:50:23;;;;;;;55.42;21.92;;;;;;;;;;1022416;29;20045;-80
2022/10/25 01:50:54;;;;;;;53.67;25.67;;;;;;;;;;1027022;28;20089;-79
2022/10/25 01:51:25;;;;;;;62.15;27.35;;;;;;;;;;1022670;28;20050;-80
2022/10/25 01:51:56;;;;;;;55.55;27.05;;;;;;;;;;1023057;28;20023;-80
2022/10/25 01:52:27;;;;;;;59.88;24.83;;;;;;;;;;1023540;28;20388;-80
2022/10/25 01:52:57;;;;;;;49.13;23.35;;;;;;;;;;1020482;29;20030;-80
2022/10/25 01:53:28;;;;;;;73.25;29.60;;;;;;;;;;1020689;29;20506;-79
2022/10/25 01:53:58;;;;;;;73.47;29.58;;;;;;;;;;1022535;29;20031;-79
2022/10/25 01:54:29;;;;;;;66.30;28.80;;;;;;;;;;1023420;29;20131;-80
2022/10/25 01:55:00;;;;;;;64.03;25.77;;;;;;;;;;1023645;28;20094;-80
2022/10/25 01:55:34;;;;;;;59.15;29.05;;;;;;;;;;1027501;28;20027;-78
2022/10/25 01:56:05;;;;;;;66.55;25.85;;;;;;;;;;1027345;28;20019;-79
2022/10/25 01:56:43;;;;;;;64.50;28.48;;;;;;;;;;1026955;28;20022;-79
2022/10/25 01:57:23;;;;;;;73.80;28.48;;;;;;;;;;1027847;28;20033;-80
2022/10/25 01:57:54;;;;;;;;;;;;;;;;;;1027799;28;20027;-79
2022/10/25 01:58:24;;;;;;;66.88;27.70;;;;;;;;;;1027073;28;20540;-79
2022/10/25 01:59:13;;;;;;;63.10;29.05;;;;;;;;;;1025205;28;20070;-80
2022/10/25 01:59:56;;;;;;;62.83;25.42;;;;;;;;;;1027217;28;20503;-81
2022/10/25 02:00:29;;;;;;;64.47;28.40;;;;;;;;;;1024103;28;20042;-80
2022/10/25 02:01:03;;;;;;;69.53;27.67;;;;;;;;;;1023022;28;20099;-80
2022/10/25 02:01:36;;;;;;;58.42;29.27;;;;;;;;;;1022906;29;20030;-81
2022/10/25 02:02:12;;;;;;;70.22;29.42;;;;;;;;;;1023375;29;20038;-81
2022/10/25 02:02:49;;;;;;;61.28;27.58;;;;;;;;;;1023781;28;20019;-80
2022/10/25 02:03:31;;;;;;;74.40;29.77;;;;;;;;;;1026847;28;20064;-79
2022/10/25 02:04:37;;;;;;;66.10;26.20;;;;;;;;;;1027265;28;20475;-79
2022/10/25 02:05:26;;;;;;;62.10;29.23;;;;;;;;;;1013804;29;20119;-79
2022/10/25 02:06:03;;;;;;;55.40;25.05;;;;;;;;;;1014405;29;20588;-79
2022/10/25 02:06:39;;;;;;;59.42;27.58;;;;;;;;;;1013424;29;20028;-79
2022/10/25 02:07:18;;;;;;;68.82;29.30;;;;;;;;;;1013390;29;20091;-80
2022/10/25 02:07:51;;;;;;;60.35;29.35;;;;;;;;;;1019058;29;20083;-79
2022/10/25 02:08:27;;;;;;;74.93;32.17;;;;;;;;;;1019279;29;20020;-79
2022/10/25 02:09:03;;;;;;;69.05;27.92;;;;;;;;;;1024885;28;20063;-80
2022/10/25 02:09:56;;;;;;;86.18;36.50;;;;;;;;;;1024579;28;20069;-80
2022/10/25 02:10:45;;;;;;;72.95;36.35;;;;;;;;;;1019300;28;20028;-80
2022/10/25 02:11:36;;;;;;;88.10;38.17;;;;;;;;;;1021799;28;20027;-80
2022/10/25 02:12:09;;;;;;;65.90;29.70;;;;;;;;;;1021842;28;20122;-81
2022/10/25 02:12:54;;;;;;;67.30;27.08;;;;;;;;;;1024316;28;20023;-81
2022/10/25 02:13:36;;;;;;;77.25;32.97;;;;;;;;;;1025489;28;20023;-81
2022/10/25 02:14:15;;;;;;;80.22;31.80;;;;;;;;;;1025347;28;20023;-80
2022/10/25 02:15:03;;;;;;;78.00;29.92;;;;;;;;;;1025896;28;20026;-81
2022/10/25 02:15:38;;;;;;;76.50;32.63;;;;;;;;;;1024884;28;20407;-81
2022/10/25 02:16:15;;;;;;;77.78;32.63;;;;;;;;;;1025560;28;20098;-82
2022/10/25 02:17:02;;;;;;;78.35;32.80;;;;;;;;;;1024519;28;20030;-81
2022/10/25 02:17:36;;;;;;;73.18;31.50;;;;;;;;;;1025013;28;20085;-81
2022/10/25 02:18:09;;;;;;;87.18;33.15;;;;;;;;;;1027740;28;20023;-81
2022/10/25 02:18:43;;;;;;;82.53;38.28;;;;;;;;;;1027762;28;20030;-80
2022/10/25 02:19:22;;;;;;;85.05;32.50;;;;;;;;;;1025138;28;20030;-81
2022/10/25 02:19:55;;;;;;;78.90;38.30;;;;;;;;;;1025017;28;20027;-80
2022/10/25 02:20:27;;;;;;;82.15;33.70;;;;;;;;;;1023768;28;20262;-82
2022/10/25 02:21:35;;;;;;;83.10;33.13;;;;;;;;;;1026575;28;20058;-76
2022/10/25 02:22:07;;;;;;;80.32;30.40;;;;;;;;;;1029199;28;20026;-77
2022/10/25 02:22:38;;;;;;;73.32;27.95;;;;;;;;;;1030588;28;20023;-78
2022/10/25 02:23:11;;;;;;;76.20;30.63;;;;;;;;;;1028905;28;20529;-76
2022/10/25 02:23:42;;;;;;;77.70;31.85;;;;;;;;;;1030041;28;20022;-75
2022/10/25 02:24:15;;;;;;;71.15;31.45;;;;;;;;;;1024492;28;20034;-77
2022/10/25 02:24:48;;;;;;;90.85;38.58;;;;;;;;;;1024258;28;20027;-76
2022/10/25 02:25:20;;;;;;;73.72;32.40;;;;;;;;;;1022468;28;20674;-77
2022/10/25 02:25:52;;;;;;;71.78;32.42;;;;;;;;;;1020800;29;20035;-77
2022/10/25 02:26:23;;;;;;;66.68;30.98;;;;;;;;;;1022271;28;20050;-76
2022/10/25 02:26:56;;;;;;;66.38;30.42;;;;;;;;;;1025227;28;20023;-77
2022/10/25 02:27:28;;;;;;;74.70;36.25;;;;;;;;;;1026349;28;20019;-76
2022/10/25 02:28:00;;;;;;;74.22;34.67;;;;;;;;;;1028560;28;20138;-76
2022/10/25 02:28:31;;;;;;;80.85;38.97;;;;;;;;;;1028176;28;20026;-77
2022/10/25 02:29:03;;;;;;;92.20;36.85;;;;;;;;;;1025495;28;20018;-76
2022/10/25 02:29:34;;;;;;;75.53;31.13;;;;;;;;;;1029160;28;21148;-78
2022/10/25 02:30:06;;;;;;;70.72;32.95;;;;;;;;;;1027197;28;20018;-78
2022/10/25 02:30:38;;;;;;;63.67;29.75;;;;;;;;;;1025862;28;20038;-76
2022/10/25 02:31:11;;;;;;;77.60;34.15;;;;;;;;;;1021040;28;20062;-78
2022/10/25 02:31:42;;;;;;;79.80;35.22;;;;;;;;;;1023227;28;20877;-77
2022/10/25 02:32:14;;;;;;;76.07;33.65;;;;;;;;;;1022703;28;20627;-77
2022/10/25 02:32:45;;;;;;;77.43;37.85;;;;;;;;;;1024563;28;20089;-76
2022/10/25 02:33:16;;;;;;;100.55;39.17;;;;;;;;;;1028636;28;20097;-76
2022/10/25 02:33:47;;;;;;;90.28;38.38;;;;;;;;;;1028085;28;20039;-77
2022/10/25 02:34:18;;;;;;;59.20;27.88;;;;;;;;;;1026668;28;21098;-76
2022/10/25 02:34:49;;;;;;;60.30;30.25;;;;;;;;;;1029271;28;20145;-77
2022/10/25 02:35:20;;;;;;;68.05;32.65;;;;;;;;;;1029399;28;20021;-78
2022/10/25 02:36:09;;;;;;;57.72;26.63;;;;;;;;;;1028057;28;20031;-79
2022/10/25 02:36:39;;;;;;;85.10;38.53;;;;;;;;;;1027096;28;20051;-77
2022/10/25 02:37:10;;;;;;;74.72;30.27;;;;;;;;;;1025922;28;20164;-78
2022/10/25 02:37:40;;;;;;;70.60;34.95;;;;;;;;;;1022563;28;20720;-78
2022/10/25 02:38:11;;;;;;;83.65;38.30;;;;;;;;;;1018627;28;20039;-79
2022/10/25 02:38:44;;;;;;;79.32;38.20;;;;;;;;;;1020232;28;20027;-77
2022/10/25 02:39:15;;;;;;;72.38;33.33;;;;;;;;;;1023946;28;20041;-79
2022/10/25 02:39:46;;;;;;;85.65;41.08;;;;;;;;;;1021493;29;20032;-77
2022/10/25 02:40:16;;;;;;;89.72;38.08;;;;;;;;;;1020829;28;20031;-77
2022/10/25 02:40:47;;;;;;;91.25;43.33;;;;;;;;;;1018582;28;20234;-77
2022/10/25 02:41:21;;;;;;;88.93;43.25;;;;;;;;;;1024398;28;20113;-77
2022/10/25 02:41:52;;;;;;;87.30;35.83;;;;;;;;;;1024450;28;20026;-77
2022/10/25 02:42:22;;;;;;;83.93;39.05;;;;;;;;;;1024860;28;20552;-76
2022/10/25 02:42:53;;;;;;;84.68;37.22;;;;;;;;;;1024882;28;20602;-77
2022/10/25 02:43:24;;;;;;;110.35;46.13;;;;;;;;;;1026177;28;20110;-77
2022/10/25 02:43:55;;;;;;;81.13;40.05;;;;;;;;;;1025452;28;20298;-77
2022/10/25 02:44:25;;;;;;;92.85;48.47;;;;;;;;;;1024912;28;20023;-77
2022/10/25 02:44:56;;;;;;;91.47;42.53;;;;;;;;;;1027424;28;20577;-77
2022/10/25 02:45:26;;;;;;;86.88;41.90;;;;;;;;;;1024941;28;20023;-78
2022/10/25 02:45:57;;;;;;;83.50;42.08;;;;;;;;;;1023642;28;20034;-76
2022/10/25 02:46:28;;;;;;;92.35;41.53;;;;;;;;;;1023994;28;20023;-76
2022/10/25 02:46:59;;;;;;;91.13;42.97;;;;;;;;;;1024556;28;20027;-78
2022/10/25 02:47:29;;;;;;;86.95;42.75;;;;;;;;;;1027620;28;20363;-77
2022/10/25 02:48:00;;;;;;;81.47;38.80;;;;;;;;;;1027490;28;20030;-76
2022/10/25 02:48:31;;;;;;;97.82;43.22;;;;;;;;;;1028154;28;20034;-77
2022/10/25 02:49:01;;;;;;;96.35;41.50;;;;;;;;;;1028125;28;20133;-78
2022/10/25 02:49:32;;;;;;;87.80;38.80;;;;;;;;;;1024932;28;20023;-76
2022/10/25 02:50:03;;;;;;;86.53;42.22;;;;;;;;;;1023792;28;20051;-77
2022/10/25 02:50:34;;;;;;;92.30;39.75;;;;;;;;;;1024840;28;20051;-76
2022/10/25 02:51:05;;;;;;;82.50;38.45;;;;;;;;;;1025182;28;20023;-76
2022/10/25 02:51:35;;;;;;;81.85;42.22;;;;;;;;;;1023709;28;20479;-77
2022/10/25 02:52:06;;;;;;;80.85;35.40;;;;;;;;;;1020633;28;20030;-76
2022/10/25 02:52:36;;;;;;;82.22;37.17;;;;;;;;;;1016114;29;20034;-76
2022/10/25 02:53:07;;;;;;;89.68;40.88;;;;;;;;;;1019364;28;20078;-77
2022/10/25 02:53:38;;;;;;;74.40;32.75;;;;;;;;;;1023646;28;20038;-76
2022/10/25 02:54:09;;;;;;;87.70;38.53;;;;;;;;;;1022924;28;20170;-76
2022/10/25 02:54:39;;;;;;;82.13;35.90;;;;;;;;;;1023840;28;20038;-76
2022/10/25 02:55:10;;;;;;;93.15;40.30;;;;;;;;;;1022295;28;20586;-76
2022/10/25 02:55:43;;;;;;;66.43;31.42;;;;;;;;;;1020266;28;20125;-77
2022/10/25 02:56:15;;;;;;;78.78;32.55;;;;;;;;;;1019864;28;20031;-77
2022/10/25 02:56:47;;;;;;;78.00;31.52;;;;;;;;;;1022693;28;20037;-76
2022/10/25 02:57:18;;;;;;;79.38;34.40;;;;;;;;;;1024882;28;20037;-76
2022/10/25 02:57:48;;;;;;;64.82;30.38;;;;;;;;;;1024683;28;20073;-77
2022/10/25 02:58:19;;;;;;;69.72;31.13;;;;;;;;;;1022565;28;20088;-76
2022/10/25 02:58:51;;;;;;;89.97;42.08;;;;;;;;;;1018977;28;20170;-77
2022/10/25 02:59:21;;;;;;;89.95;40.65;;;;;;;;;;1020255;28;20047;-76
2022/10/25 02:59:52;;;;;;;91.93;40.45;;;;;;;;;;1021034;28;20198;-76
2022/10/25 03:00:23;;;;;;;94.30;43.92;;;;;;;;;;1020772;28;20090;-77
2022/10/25 03:00:53;;;;;;;71.45;35.00;;;;;;;;;;1026742;28;20023;-78
2022/10/25 03:01:24;;;;;;;90.30;39.13;;;;;;;;;;1022323;28;20027;-77
2022/10/25 03:01:55;;;;;;;81.97;37.00;;;;;;;;;;1024604;28;20027;-78
2022/10/25 03:02:26;;;;;;;71.97;32.63;;;;;;;;;;1024037;28;20039;-78
2022/10/25 03:02:59;;;;;;;80.72;42.17;;;;;;;;;;1024125;28;20402;-76
2022/10/25 03:03:30;;;;;;;76.53;39.85;;;;;;;;;;1020898;28;20026;-77
2022/10/25 03:04:01;;;;;;;78.78;34.75;;;;;;;;;;1023807;28;20694;-76
2022/10/25 03:04:32;;;;;;;91.13;41.20;;;;;;;;;;1022318;28;20031;-76
2022/10/25 03:05:03;;;;;;;75.30;34.30;;;;;;;;;;1023343;28;20030;-77
2022/10/25 03:05:34;;;;;;;73.30;32.00;;;;;;;;;;1027533;28;20030;-78
2022/10/25 03:06:05;;;;;;;80.60;33.85;;;;;;;;;;1026316;28;20335;-77
2022/10/25 03:06:35;;;;;;;72.50;33.92;;;;;;;;;;1026161;28;20082;-77
2022/10/25 03:07:06;;;;;;;79.57;38.20;;;;;;;;;;1027380;28;21818;-78
2022/10/25 03:07:37;;;;;;;92.25;35.85;;;;;;;;;;1026478;28;20395;-78
2022/10/25 03:08:18;;;;;;;77.45;37.33;;;;;;;;;;1022594;28;20027;-78
2022/10/25 03:08:48;;;;;;;104.65;42.15;;;;;;;;;;1017432;29;20027;-77
2022/10/25 03:09:19;;;;;;;88.22;42.00;;;;;;;;;;1015381;29;20039;-76
2022/10/25 03:09:50;;;;;;;83.47;39.75;;;;;;;;;;1018056;29;20039;-77
2022/10/25 03:10:20;;;;;;;95.80;43.83;;;;;;;;;;1021108;28;20023;-79
2022/10/25 03:10:51;;;;;;;75.38;34.05;;;;;;;;;;1020973;28;20459;-78
2022/10/25 03:11:22;;;;;;;78.80;34.00;;;;;;;;;;1024060;28;20069;-77
2022/10/25 03:11:53;;;;;;;81.72;31.63;;;;;;;;;;1025373;28;20120;-77
2022/10/25 03:12:23;;;;;;;65.35;26.85;;;;;;;;;;1026186;28;20027;-77
2022/10/25 03:12:54;;;;;;;65.50;32.55;;;;;;;;;;1023106;28;20124;-77
2022/10/25 03:13:25;;;;;;;82.75;31.83;;;;;;;;;;1024488;28;20055;-77
2022/10/25 03:13:56;;;;;;;95.38;41.95;;;;;;;;;;1025537;28;20053;-77
2022/10/25 03:14:27;;;;;;;87.07;43.95;;;;;;;;;;1022005;28;20027;-77
2022/10/25 03:14:57;;;;;;;72.03;32.40;;;;;;;;;;1027458;28;20025;-76
2022/10/25 03:15:29;;;;;;;83.30;37.38;;;;;;;;;;1029402;28;20069;-76
2022/10/25 03:16:00;;;;;;;94.70;41.40;;;;;;;;;;1025857;28;20122;-78
2022/10/25 03:16:31;;;;;;;82.63;37.78;;;;;;;;;;1029049;28;20014;-77
2022/10/25 03:17:02;;;;;;;63.30;29.42;;;;;;;;;;1025216;28;20027;-78
2022/10/25 03:17:34;;;;;;;66.47;29.27;;;;;;;;;;1022183;28;20051;-77